createdAt,value
2022-08-03T00:01:41.853Z,60.75
2022-08-03T00:04:11.965Z,60.76
2022-08-03T00:06:39.900Z,61.12
2022-08-03T00:09:08.039Z,60.74
2022-08-03T00:11:36.624Z,60.71
2022-08-03T00:14:05.043Z,60.95
2022-08-03T00:16:33.054Z,60.89
2022-08-03T00:19:01.131Z,61.08
2022-08-03T00:21:30.560Z,61.41
2022-08-03T00:23:58.571Z,61.23
2022-08-03T00:26:26.545Z,61.50
2022-08-03T00:28:54.472Z,61.42
2022-08-03T00:31:43.036Z,61.48
2022-08-03T00:34:10.371Z,61.57
2022-08-03T00:36:41.811Z,61.48
2022-08-03T00:39:10.629Z,61.42
2022-08-03T00:41:38.574Z,61.55
2022-08-03T00:44:06.521Z,61.72
2022-08-03T00:46:34.645Z,61.60
2022-08-03T00:49:03.051Z,61.43
2022-08-03T00:51:31.097Z,61.46
2022-08-03T00:54:00.420Z,61.66
2022-08-03T00:56:28.546Z,61.45
2022-08-03T00:58:56.481Z,61.60
2022-08-03T01:01:24.513Z,61.59
2022-08-03T01:03:52.516Z,61.55
2022-08-03T01:06:21.504Z,61.50
2022-08-03T01:08:53.393Z,61.57
2022-08-03T01:11:25.856Z,61.50
2022-08-03T01:14:03.667Z,61.51
2022-08-03T01:16:49.655Z,61.38
2022-08-03T01:19:27.800Z,61.29
2022-08-03T01:22:00.725Z,61.37
2022-08-03T01:24:35.561Z,61.47
2022-08-03T01:27:10.049Z,61.52
2022-08-03T01:29:53.726Z,61.55
2022-08-03T01:32:53.470Z,61.39
2022-08-03T01:35:12.421Z,61.40
2022-08-03T01:37:42.460Z,61.39
2022-08-03T01:40:11.441Z,61.38
2022-08-03T01:42:39.644Z,61.14
2022-08-03T01:45:10.600Z,61.30
2022-08-03T01:47:38.516Z,61.43
2022-08-03T01:50:07.382Z,61.06
2022-08-03T01:52:35.332Z,61.04
2022-08-03T01:55:03.277Z,61.19
2022-08-03T01:57:31.290Z,60.97
2022-08-03T01:59:59.277Z,60.85
2022-08-03T02:02:34.141Z,60.85
2022-08-03T02:05:02.863Z,60.94
2022-08-03T02:07:30.832Z,60.87
2022-08-03T02:09:58.777Z,60.65
2022-08-03T02:12:26.972Z,60.38
2022-08-03T02:14:55.016Z,60.63
2022-08-03T02:17:39.938Z,60.54
2022-08-03T02:20:10.779Z,60.68
2022-08-03T02:22:39.710Z,60.53
2022-08-03T02:25:09.070Z,60.61
2022-08-03T02:27:41.768Z,60.43
2022-08-03T02:30:12.321Z,60.50
2022-08-03T02:32:41.007Z,60.58
2022-08-03T02:35:13.025Z,60.80
2022-08-03T02:37:43.270Z,61.00
2022-08-03T02:40:17.677Z,61.01
2022-08-03T02:42:45.667Z,61.18
2022-08-03T02:45:14.486Z,61.23
2022-08-03T02:47:54.251Z,61.28
2022-08-03T02:50:24.308Z,61.54
2022-08-03T02:52:52.623Z,61.46
2022-08-03T02:55:21.107Z,61.40
2022-08-03T02:57:49.059Z,61.47
2022-08-03T03:00:27.365Z,61.58
2022-08-03T03:02:58.141Z,61.68
2022-08-03T03:05:56.116Z,61.37
2022-08-03T03:08:18.832Z,61.50
2022-08-03T03:10:49.117Z,61.52
2022-08-03T03:13:23.285Z,61.75
2022-08-03T03:15:51.184Z,62.03
2022-08-03T03:18:22.561Z,62.17
2022-08-03T03:20:52.913Z,62.69
2022-08-03T03:23:21.486Z,62.77
2022-08-03T03:25:49.393Z,62.98
2022-08-03T03:28:17.388Z,62.94
2022-08-03T03:30:45.298Z,62.96
2022-08-03T03:33:20.914Z,63.17
2022-08-03T03:35:48.843Z,63.20
2022-08-03T03:38:18.176Z,63.46
2022-08-03T03:40:46.152Z,63.41
2022-08-03T03:43:14.408Z,63.51
2022-08-03T03:45:42.912Z,63.53
2022-08-03T03:48:10.873Z,63.58
2022-08-03T03:50:40.962Z,63.65
2022-08-03T03:53:10.565Z,63.81
2022-08-03T03:55:59.297Z,63.60
2022-08-03T03:58:28.065Z,63.74
2022-08-03T04:00:56.125Z,63.63
2022-08-03T04:03:24.211Z,63.75
2022-08-03T04:06:09.807Z,63.77
2022-08-03T04:08:55.160Z,63.99
2022-08-03T04:11:30.344Z,63.85
2022-08-03T04:14:02.281Z,63.75
2022-08-03T04:16:31.828Z,64.04
2022-08-03T04:19:02.292Z,64.10
2022-08-03T04:21:30.645Z,64.08
2022-08-03T04:24:01.472Z,64.25
2022-08-03T04:26:32.389Z,64.08
2022-08-03T04:29:00.361Z,64.08
2022-08-03T04:31:28.320Z,64.10
2022-08-03T04:33:56.387Z,64.33
2022-08-03T04:36:26.806Z,64.08
2022-08-03T04:38:57.876Z,64.24
2022-08-03T04:41:26.489Z,64.18
2022-08-03T04:43:57.584Z,63.98
2022-08-03T04:46:27.449Z,64.09
2022-08-03T04:48:55.527Z,64.13
2022-08-03T04:51:23.697Z,64.16
2022-08-03T04:53:51.594Z,64.18
2022-08-03T04:56:20.834Z,64.25
2022-08-03T04:58:48.780Z,64.27
2022-08-03T05:01:18.260Z,64.33
2022-08-03T05:03:46.221Z,64.51
2022-08-03T05:06:14.153Z,64.35
2022-08-03T05:08:47.150Z,64.38
2022-08-03T05:11:16.880Z,64.22
2022-08-03T05:13:44.849Z,64.23
2022-08-03T05:16:13.864Z,64.19
2022-08-03T05:18:43.277Z,64.16
2022-08-03T05:21:12.462Z,64.24
2022-08-03T05:23:40.390Z,64.27
2022-08-03T05:26:08.266Z,64.27
2022-08-03T05:28:36.312Z,64.14
2022-08-03T05:31:04.277Z,64.25
2022-08-03T05:33:32.478Z,64.20
2022-08-03T05:36:04.169Z,64.29
2022-08-03T05:38:34.539Z,64.08
2022-08-03T05:41:21.432Z,64.16
2022-08-03T05:43:51.968Z,64.27
2022-08-03T05:46:20.577Z,64.13
2022-08-03T05:48:48.549Z,64.00
2022-08-03T05:51:18.034Z,64.08
2022-08-03T05:53:46.278Z,64.12
2022-08-03T05:56:16.402Z,64.16
2022-08-03T05:58:45.732Z,63.92
2022-08-03T06:01:13.778Z,63.86
2022-08-03T06:03:41.819Z,63.97
2022-08-03T06:06:09.826Z,64.04
2022-08-03T06:08:43.617Z,64.11
2022-08-03T06:11:11.816Z,64.18
2022-08-03T06:13:39.813Z,63.74
2022-08-03T06:16:07.822Z,63.94
2022-08-03T06:18:35.860Z,63.96
2022-08-03T06:21:14.771Z,64.12
2022-08-03T06:23:54.397Z,64.14
2022-08-03T06:26:27.588Z,64.22
2022-08-03T06:28:55.742Z,64.34
2022-08-03T06:31:32.767Z,64.22
2022-08-03T06:34:32.955Z,64.20
2022-08-03T06:36:52.577Z,64.46
2022-08-03T06:39:23.587Z,64.42
2022-08-03T06:41:52.956Z,64.24
2022-08-03T06:44:34.346Z,64.03
2022-08-03T06:47:05.369Z,63.93
2022-08-03T06:49:36.437Z,63.96
2022-08-03T06:52:10.244Z,63.70
2022-08-03T06:54:50.174Z,64.06
2022-08-03T06:57:22.025Z,64.00
2022-08-03T07:00:09.847Z,64.07
2022-08-03T07:02:51.783Z,64.04
2022-08-03T07:05:30.874Z,64.14
2022-08-03T07:07:59.530Z,64.05
2022-08-03T07:10:28.949Z,64.13
2022-08-03T07:12:57.160Z,64.05
2022-08-03T07:15:53.673Z,63.72
2022-08-03T07:18:13.233Z,63.90
2022-08-03T07:20:42.272Z,64.09
2022-08-03T07:23:19.041Z,63.93
2022-08-03T07:25:48.815Z,64.09
2022-08-03T07:28:17.013Z,64.11
2022-08-03T07:30:45.173Z,64.02
2022-08-03T07:33:15.510Z,64.19
2022-08-03T07:35:43.704Z,64.20
2022-08-03T07:38:13.831Z,64.29
2022-08-03T07:40:46.038Z,64.25
2022-08-03T07:43:17.933Z,64.37
2022-08-03T07:45:46.171Z,64.66
2022-08-03T07:48:14.152Z,64.27
2022-08-03T07:50:42.558Z,64.42
2022-08-03T07:53:10.550Z,64.30
2022-08-03T07:55:41.630Z,64.13
2022-08-03T07:58:12.375Z,63.92
2022-08-03T08:00:42.019Z,63.59
2022-08-03T08:03:10.193Z,63.28
2022-08-03T08:05:38.314Z,63.06
2022-08-03T08:08:06.682Z,62.98
2022-08-03T08:10:35.135Z,63.20
2022-08-03T08:13:03.241Z,63.08
2022-08-03T08:15:32.060Z,63.00
2022-08-03T08:18:02.477Z,63.19
2022-08-03T08:20:33.254Z,63.23
2022-08-03T08:23:40.853Z,62.63
2022-08-03T08:25:58.242Z,62.67
2022-08-03T08:28:30.192Z,62.49
2022-08-03T08:31:01.130Z,62.31
2022-08-03T08:33:47.914Z,61.11
2022-08-03T08:36:18.577Z,61.24
2022-08-03T08:38:46.527Z,61.14
2022-08-03T08:41:15.036Z,60.57
2022-08-03T08:43:43.149Z,60.52
2022-08-03T08:46:13.040Z,59.99
2022-08-03T08:48:53.369Z,59.69
2022-08-03T08:51:22.125Z,59.86
2022-08-03T08:53:52.580Z,58.68
2022-08-03T08:56:20.535Z,58.46
2022-08-03T08:58:49.637Z,58.29
2022-08-03T09:01:19.282Z,58.00
2022-08-03T09:03:47.429Z,58.17
2022-08-03T09:06:16.962Z,57.64
2022-08-03T09:08:44.860Z,57.66
2022-08-03T09:11:12.940Z,57.39
2022-08-03T09:13:40.871Z,57.30
2022-08-03T09:16:13.113Z,56.34
2022-08-03T09:18:41.252Z,56.24
2022-08-03T09:21:34.453Z,55.79
2022-08-03T09:24:05.803Z,56.07
2022-08-03T09:26:35.822Z,55.37
2022-08-03T09:29:09.528Z,55.44
2022-08-03T09:31:43.275Z,55.07
2022-08-03T09:34:12.310Z,55.04
2022-08-03T09:36:43.165Z,54.29
2022-08-03T09:39:12.045Z,54.28
2022-08-03T09:41:40.736Z,54.12
2022-08-03T09:44:08.693Z,53.62
2022-08-03T09:46:53.733Z,53.32
2022-08-03T09:49:22.574Z,53.54
2022-08-03T09:52:32.734Z,52.45
2022-08-03T09:54:41.378Z,51.59
2022-08-03T09:57:10.104Z,51.35
2022-08-03T09:59:41.166Z,50.84
2022-08-03T10:02:10.982Z,50.43
2022-08-03T10:04:48.637Z,50.53
2022-08-03T10:07:18.635Z,49.92
2022-08-03T10:09:55.519Z,49.68
2022-08-03T10:12:24.050Z,49.98
2022-08-03T10:14:52.532Z,49.16
2022-08-03T10:17:20.584Z,49.42
2022-08-03T10:19:48.637Z,48.94
2022-08-03T10:22:19.941Z,48.74
2022-08-03T10:24:51.253Z,48.96
2022-08-03T10:27:20.209Z,48.50
2022-08-03T10:29:53.638Z,48.40
2022-08-03T10:32:24.066Z,47.65
2022-08-03T10:34:52.236Z,47.72
2022-08-03T10:37:30.191Z,47.17
2022-08-03T10:39:58.360Z,47.17
2022-08-03T10:42:27.205Z,47.14
2022-08-03T10:45:00.750Z,46.53
2022-08-03T10:47:28.676Z,46.53
2022-08-03T10:49:56.747Z,45.57
2022-08-03T10:52:32.787Z,45.96
2022-08-03T10:55:21.965Z,45.72
2022-08-03T10:57:58.410Z,45.83
2022-08-03T11:00:27.832Z,46.11
2022-08-03T11:03:09.738Z,45.61
2022-08-03T11:05:47.019Z,45.15
2022-08-03T11:08:29.111Z,45.43
2022-08-03T11:11:00.285Z,45.24
2022-08-03T11:13:31.175Z,44.53
2022-08-03T11:16:01.660Z,44.80
2022-08-03T11:18:31.851Z,44.68
2022-08-03T11:21:00.324Z,45.18
2022-08-03T11:24:04.309Z,44.66
2022-08-03T11:26:35.173Z,45.12
2022-08-03T11:29:30.152Z,44.92
2022-08-03T11:31:58.441Z,45.23
2022-08-03T11:34:26.411Z,45.10
2022-08-03T11:37:23.695Z,46.40
2022-08-03T11:39:54.848Z,47.43
2022-08-03T11:42:45.234Z,46.75
2022-08-03T11:45:13.248Z,45.96
2022-08-03T11:47:50.658Z,45.62
2022-08-03T11:50:20.048Z,44.70
2022-08-03T11:52:48.155Z,43.71
2022-08-03T11:55:18.938Z,43.80
2022-08-03T11:59:09.396Z,43.34
2022-08-03T12:00:36.328Z,42.62
2022-08-03T12:03:06.511Z,41.94
2022-08-03T12:05:51.212Z,41.28
2022-08-03T12:08:31.315Z,40.75
2022-08-03T12:11:00.526Z,40.49
2022-08-03T12:13:56.735Z,40.15
2022-08-03T12:16:25.860Z,39.70
2022-08-03T12:18:56.931Z,38.81
2022-08-03T12:21:25.177Z,38.46
2022-08-03T12:23:53.154Z,38.22
2022-08-03T12:26:21.163Z,38.28
2022-08-03T12:28:50.475Z,38.08
2022-08-03T12:31:18.426Z,38.12
2022-08-03T12:33:59.930Z,37.94
2022-08-03T12:36:29.525Z,38.55
2022-08-03T12:38:58.111Z,38.52
2022-08-03T12:41:30.317Z,38.01
2022-08-03T12:43:59.835Z,37.62
2022-08-03T12:46:31.843Z,37.21
2022-08-03T12:49:01.087Z,38.21
2022-08-03T12:51:29.457Z,37.47
2022-08-03T12:53:57.946Z,37.24
2022-08-03T12:56:25.950Z,37.56
2022-08-03T12:58:54.205Z,37.45
2022-08-03T13:01:24.535Z,37.06
2022-08-03T13:03:54.677Z,36.29
2022-08-03T13:06:24.519Z,36.11
2022-08-03T13:09:03.004Z,35.43
2022-08-03T13:11:53.604Z,36.21
2022-08-03T13:14:19.935Z,36.03
2022-08-03T13:16:49.708Z,35.77
2022-08-03T13:19:17.677Z,35.21
2022-08-03T13:22:01.673Z,35.16
2022-08-03T13:24:32.384Z,35.37
2022-08-03T13:27:00.413Z,35.48
2022-08-03T13:29:28.641Z,35.46
2022-08-03T13:31:58.066Z,35.09
2022-08-03T13:34:26.112Z,34.79
2022-08-03T13:37:10.124Z,34.76
2022-08-03T13:39:58.471Z,34.53
2022-08-03T13:42:26.601Z,34.27
2022-08-03T13:44:54.743Z,34.07
2022-08-03T13:47:24.112Z,33.96
2022-08-03T13:49:56.973Z,34.12
2022-08-03T13:52:28.770Z,34.07
2022-08-03T13:54:56.721Z,33.63
2022-08-03T13:58:04.669Z,34.01
2022-08-03T14:00:16.699Z,33.56
2022-08-03T14:03:03.771Z,33.32
2022-08-03T14:05:32.762Z,33.44
2022-08-03T14:08:04.609Z,33.43
2022-08-03T14:10:33.345Z,33.55
2022-08-03T14:13:02.702Z,33.42
2022-08-03T14:15:30.690Z,33.04
2022-08-03T14:18:00.072Z,33.17
2022-08-03T14:20:37.150Z,33.21
2022-08-03T14:23:07.131Z,33.79
2022-08-03T14:25:44.455Z,32.98
2022-08-03T14:28:21.004Z,32.33
2022-08-03T14:30:48.975Z,32.32
2022-08-03T14:33:18.395Z,31.84
2022-08-03T14:35:46.415Z,30.92
2022-08-03T14:38:14.365Z,31.37
2022-08-03T14:40:42.451Z,30.75
2022-08-03T14:43:10.437Z,31.08
2022-08-03T14:45:38.363Z,31.14
2022-08-03T14:50:29.095Z,31.99
2022-08-03T14:50:56.816Z,32.89
2022-08-03T14:53:24.898Z,33.40
2022-08-03T14:55:53.361Z,34.33
2022-08-03T14:58:22.030Z,34.94
2022-08-03T15:00:50.429Z,35.30
2022-08-03T15:03:20.376Z,36.11
2022-08-03T15:05:48.572Z,37.13
2022-08-03T15:08:17.896Z,37.85
2022-08-03T15:10:45.802Z,38.06
2022-08-03T15:13:17.200Z,38.75
2022-08-03T15:15:45.140Z,38.73
2022-08-03T15:18:13.089Z,38.66
2022-08-03T15:20:45.863Z,38.80
2022-08-03T15:23:14.594Z,38.97
2022-08-03T15:26:28.508Z,38.58
2022-08-03T15:28:32.016Z,38.73
2022-08-03T15:30:59.994Z,39.30
2022-08-03T15:33:28.059Z,39.33
2022-08-03T15:35:56.253Z,39.77
2022-08-03T15:38:26.208Z,39.79
2022-08-03T15:40:56.076Z,39.04
2022-08-03T15:43:24.081Z,38.35
2022-08-03T15:46:12.787Z,38.39
2022-08-03T15:48:40.146Z,38.08
2022-08-03T15:51:08.241Z,38.23
2022-08-03T15:53:36.177Z,38.23
2022-08-03T15:56:11.394Z,38.41
2022-08-03T15:59:09.446Z,38.19
2022-08-03T16:01:29.456Z,38.48
2022-08-03T16:03:57.535Z,38.93
2022-08-03T16:06:29.603Z,39.01
2022-08-03T16:09:03.732Z,38.69
2022-08-03T16:11:35.725Z,38.72
2022-08-03T16:14:14.090Z,39.45
2022-08-03T16:16:51.705Z,39.78
2022-08-03T16:19:19.682Z,39.51
2022-08-03T16:21:48.752Z,39.38
2022-08-03T16:24:24.250Z,38.68
2022-08-03T16:26:57.564Z,38.59
2022-08-03T16:29:25.497Z,38.71
2022-08-03T16:31:53.635Z,38.31
2022-08-03T16:34:22.275Z,37.48
2022-08-03T16:36:51.371Z,37.13
2022-08-03T16:39:19.834Z,36.35
2022-08-03T16:41:53.575Z,35.71
2022-08-03T16:44:31.181Z,34.75
2022-08-03T16:46:59.180Z,34.26
2022-08-03T16:49:55.957Z,33.76
2022-08-03T16:52:16.484Z,33.74
2022-08-03T16:54:52.843Z,33.54
2022-08-03T16:57:56.427Z,32.73
2022-08-03T17:00:11.834Z,32.38
2022-08-03T17:02:39.900Z,32.23
2022-08-03T17:05:16.118Z,31.65
2022-08-03T17:07:54.504Z,31.68
2022-08-03T17:10:27.315Z,31.30
2022-08-03T17:12:55.532Z,30.55
2022-08-03T17:15:38.083Z,30.70
2022-08-03T17:18:12.932Z,30.34
2022-08-03T17:20:42.692Z,30.22
2022-08-03T17:23:35.406Z,29.61
2022-08-03T17:26:04.376Z,30.26
2022-08-03T17:28:48.438Z,30.23
2022-08-03T17:31:31.483Z,30.27
2022-08-03T17:34:01.280Z,30.58
2022-08-03T17:37:01.619Z,30.76
2022-08-03T17:39:21.139Z,31.40
2022-08-03T17:42:00.786Z,31.64
2022-08-03T17:44:37.625Z,32.62
2022-08-03T17:47:10.813Z,33.79
2022-08-03T17:49:39.796Z,35.33
2022-08-03T17:52:10.241Z,36.56
2022-08-03T17:55:51.534Z,37.17
2022-08-03T17:58:02.194Z,37.75
2022-08-03T18:00:59.712Z,38.34
2022-08-03T18:03:31.682Z,39.31
2022-08-03T18:06:27.941Z,39.94
2022-08-03T18:08:57.007Z,40.59
2022-08-03T18:11:35.956Z,41.16
2022-08-03T18:14:16.514Z,41.72
2022-08-03T18:16:46.063Z,41.91
2022-08-03T18:19:15.452Z,42.18
2022-08-03T18:22:03.151Z,42.56
2022-08-03T18:24:32.274Z,43.12
2022-08-03T18:27:02.394Z,43.16
2022-08-03T18:29:31.641Z,43.61
2022-08-03T18:32:06.807Z,43.78
2022-08-03T18:34:53.045Z,43.63
2022-08-03T18:37:25.182Z,43.40
2022-08-03T18:39:54.321Z,43.84
2022-08-03T18:42:26.260Z,43.94
2022-08-03T18:44:56.168Z,44.34
2022-08-03T18:47:50.867Z,44.59
2022-08-03T18:50:25.812Z,44.87
2022-08-03T18:52:57.138Z,45.09
2022-08-03T18:55:33.535Z,45.31
2022-08-03T18:58:17.841Z,45.67
2022-08-03T19:03:42.738Z,45.82
2022-08-03T19:06:19.141Z,45.96
2022-08-03T19:08:50.842Z,45.83
2022-08-03T19:11:28.063Z,46.36
2022-08-03T19:13:57.804Z,46.49
2022-08-03T19:16:31.588Z,46.31
2022-08-03T19:19:03.360Z,46.43
2022-08-03T19:21:36.428Z,46.64
2022-08-03T19:24:09.695Z,46.50
2022-08-03T19:26:39.497Z,46.67
2022-08-03T19:29:15.105Z,46.61
2022-08-03T19:31:59.136Z,46.73
2022-08-03T19:34:29.253Z,47.13
2022-08-03T19:36:59.384Z,47.09
2022-08-03T19:39:27.902Z,47.37
2022-08-03T19:42:06.328Z,47.18
2022-08-03T19:44:38.821Z,47.28
2022-08-03T19:47:10.497Z,47.47
2022-08-03T19:50:04.842Z,47.71
2022-08-03T19:52:35.522Z,47.79
2022-08-03T19:55:06.474Z,47.89
2022-08-03T19:57:35.053Z,48.09
2022-08-03T20:00:04.184Z,48.14
2022-08-03T20:02:32.532Z,48.38
2022-08-03T20:05:00.660Z,48.38
2022-08-03T20:07:30.453Z,48.74
2022-08-03T20:10:01.615Z,48.58
2022-08-03T20:12:32.133Z,48.68
2022-08-03T20:15:31.300Z,48.87
2022-08-03T20:18:17.430Z,48.96
2022-08-03T20:21:01.037Z,48.97
2022-08-03T20:24:01.931Z,49.15
2022-08-03T20:26:56.578Z,49.20
2022-08-03T20:30:07.199Z,49.33
2022-08-03T20:32:49.638Z,49.59
2022-08-03T20:35:33.867Z,49.91
2022-08-03T20:38:10.773Z,50.14
2022-08-03T20:40:50.048Z,50.21
2022-08-03T20:43:34.761Z,50.11
2022-08-03T20:46:33.727Z,50.31
2022-08-03T20:49:20.762Z,50.25
2022-08-03T20:52:05.831Z,50.46
2022-08-03T20:55:02.193Z,50.61
2022-08-03T20:57:51.665Z,50.66
2022-08-03T21:00:38.471Z,50.72
2022-08-03T21:03:23.730Z,50.80
2022-08-03T21:06:04.745Z,50.77
2022-08-03T21:08:51.114Z,50.78
2022-08-03T21:11:41.594Z,50.83
2022-08-03T21:13:08.414Z,45.53
2022-08-03T21:14:13.958Z,50.89
2022-08-03T21:16:45.294Z,51.04
2022-08-03T21:19:14.024Z,51.20
2022-08-03T21:21:42.622Z,51.20
2022-08-03T21:24:11.357Z,51.22
2022-08-03T21:26:40.314Z,51.18
2022-08-03T21:29:09.040Z,51.24
2022-08-03T21:31:37.695Z,51.22
2022-08-03T21:34:08.849Z,51.31
2022-08-03T21:36:38.158Z,51.18
2022-08-03T21:39:08.777Z,51.23
2022-08-03T21:41:39.063Z,51.29
2022-08-03T21:44:07.732Z,51.36
2022-08-03T21:46:37.813Z,51.37
2022-08-03T21:50:05.406Z,51.38
2022-08-03T21:51:57.732Z,51.34
2022-08-03T21:54:27.871Z,51.40
2022-08-03T21:56:56.391Z,51.52
2022-08-03T21:59:25.140Z,51.46
2022-08-03T22:01:55.460Z,51.44
2022-08-03T22:04:50.593Z,51.61
2022-08-03T22:07:17.546Z,51.48
2022-08-03T22:09:51.495Z,51.55
2022-08-03T22:12:23.017Z,51.54
2022-08-03T22:15:00.269Z,51.58
2022-08-03T22:17:54.064Z,51.69
2022-08-03T22:20:20.088Z,51.66
2022-08-03T22:22:55.278Z,51.74
2022-08-03T22:25:25.478Z,51.44
2022-08-03T22:27:54.050Z,51.70
2022-08-03T22:30:22.823Z,51.39
2022-08-03T22:32:51.803Z,51.62
2022-08-03T22:35:22.369Z,51.40
2022-08-03T22:37:51.015Z,51.70
2022-08-03T22:40:21.457Z,51.45
2022-08-03T22:42:51.946Z,51.60
2022-08-03T22:46:06.324Z,51.55
2022-08-03T22:48:09.186Z,51.43
2022-08-03T22:50:39.163Z,51.72
2022-08-03T22:53:07.869Z,51.56
2022-08-03T22:55:36.611Z,51.62
2022-08-03T22:58:05.319Z,51.56
2022-08-03T23:00:34.102Z,51.18
2022-08-03T23:03:02.811Z,51.38
2022-08-03T23:06:01.115Z,51.39
2022-08-03T23:08:23.011Z,51.07
2022-08-03T23:10:52.118Z,51.06
2022-08-03T23:13:20.964Z,50.97
2022-08-03T23:15:52.659Z,51.17
2022-08-03T23:18:23.671Z,50.95
2022-08-03T23:20:52.950Z,50.90
2022-08-03T23:23:23.128Z,50.73
2022-08-03T23:25:51.908Z,50.90
2022-08-03T23:28:20.627Z,50.79
2022-08-03T23:30:49.324Z,50.96
2022-08-03T23:33:19.036Z,51.03
2022-08-03T23:36:27.678Z,51.08
2022-08-03T23:38:49.000Z,51.01
2022-08-03T23:41:17.705Z,51.16
2022-08-03T23:43:52.001Z,51.21
2022-08-03T23:46:22.349Z,50.96
2022-08-03T23:48:51.391Z,51.04
2022-08-03T23:51:28.090Z,51.29
2022-08-03T23:54:02.318Z,51.17
2022-08-03T23:56:33.781Z,51.22
2022-08-03T23:59:05.828Z,51.25
